24 septembre 2022

Temps Code Temps Temp. Vue Base cloud Vent METAR/SPECI
8:00 pm
V
54 °F 15 mi - 300° 300° 3 kt METAR CYND 250000Z 30003KT 15SM FEW180 FEW240 12/08 A2982 RMK AC1CI1 CI TR SLP103
7:00 pm
V
57 °F 15 mi - 280° 280° 5 kt METAR CYND 242300Z 28005KT 15SM FEW180 FEW240 14/08 A2983 RMK AC1CI1 CI TR SLP106 DENSITY ALT 300FT
6:00 pm
V
63 °F 15 mi - 270° 270° 6 kt METAR CYND 242200Z 27006KT 15SM FEW190 FEW250 17/07 A2984 RMK AC1CI1 AC TR CI TR SLP107 DENSITY ALT 700FT
5:00 pm
V
64 °F 15 mi - 290° 290° 9 kt METAR CYND 242100Z 29009KT 15SM FEW220 18/06 A2986 RMK CI1 CI TR SLP113 DENSITY ALT 800FT
4:00 pm
V
66 °F 15 mi - 260° 260° 10 - 16 kt METAR CYND 242000Z 26010G16KT 15SM FEW056 FEW260 19/06 A2987 RMK CU1CI1 CU TR CI TR SLP118 DENSITY ALT 800FT
3:00 pm
V
66 °F 15 mi - 300° 300° 12 kt METAR CYND 241900Z 30012KT 15SM FEW052 FEW220 19/06 A2989 RMK CU1CI1 CU TR CI TR SLP124 DENSITY ALT 800FT
2:00 pm
V
64 °F 15 mi - 250° 250° 9 - 15 kt METAR CYND 241800Z 25009G15KT 220V300 15SM FEW048 FEW240 18/07 A2991 RMK CU1CI1 CU TR CI TR SLP133 DENSITY ALT 700FT
1:00 pm
V
64 °F 15 mi - 260° 260° 12 kt METAR CYND 241700Z 26012KT 15SM FEW045 FEW200 18/06 A2994 RMK CU1CI1 CI TR SLP142 DENSITY ALT 600FT
12:00 pm
V
63 °F 15 mi - 280° 280° 11 kt METAR CYND 241600Z 28011KT 15SM FEW045 FEW200 17/06 A2996 RMK CU1CI1 CU TR CI TR SLP148 DENSITY ALT 500FT
11:00 am
V
61 °F 15 mi - 250° 250° 8 kt METAR CYND 241500Z 25008KT 15SM FEW250 16/07 A2998 RMK CI1 CI TR SLP156 DENSITY ALT 300FT
10:00 am
V
55 °F 15 mi - 220° 220° 3 kt METAR CYND 241400Z 22003KT 190V280 15SM SKC 13/07 A3000 RMK SLP162
9:00 am
V
48 °F 15 mi - 270° 270° 5 kt METAR CYND 241300Z 27005KT 15SM SKC 09/06 A3000 RMK SLP163
8:00 am
V
43 °F 15 mi - 260° 260° 4 kt METAR CYND 241200Z 26004KT 15SM FEW120 FEW250 06/05 A3001 RMK AS1CI1 AS TR CI TR SLP167
7:00 am
V
37 °F 15 mi - 270° 270° 5 kt METAR CYND 241100Z 27005KT 15SM FEW015 FEW120 03/03 A3002 RMK CF1AC1 CF TR AC TR FROIN SLP170

23 septembre 2022

Temps Code Temps Temp. Vue Base cloud Vent METAR/SPECI
9:00 pm
V
43 °F 15 mi - Var 000° 0 kt METAR CYND 240100Z 00000KT 15SM SKC 06/04 A3004 RMK LAST STFD OBS/NXT 241100Z SLP178
8:00 pm
V
43 °F 15 mi - 300° 300° 4 kt METAR CYND 240000Z 30004KT 15SM SKC 06/04 A3004 RMK SLP178
7:00 pm
V
50 °F 15 mi - 310° 310° 2 kt METAR CYND 232300Z 31002KT 15SM SKC 10/05 A3003 RMK SLP175
6:00 pm
V
55 °F 15 mi - 310° 310° 5 kt METAR CYND 232200Z 31005KT 15SM FEW050 13/02 A3002 RMK SC1 SC TR SLP170
5:00 pm
V
55 °F 15 mi - 320° 320° 12 - 19 kt METAR CYND 232100Z 32012G19KT 15SM FEW045 13/01 A3002 RMK SC1 SC TR SLP168
4:00 pm
V
55 °F 15 mi - 300° 300° 12 - 19 kt METAR CYND 232000Z 30012G19KT 270V330 15SM FEW045 13/02 A3002 RMK SC1 SLP168
3:00 pm
V
55 °F 15 mi - 310° 310° 14 - 20 kt METAR CYND 231900Z 31014G20KT 280V340 15SM FEW045 13/02 A3002 RMK SC1 SLP168
2:00 pm
V
54 °F 15 mi - 340° 340° 15 - 20 kt METAR CYND 231800Z 34015G20KT 15SM FEW034 FEW044 12/02 A3003 RMK SC1SC1 SLP172
1:00 pm
V
52 °F 15 mi - 330° 330° 12 - 21 kt METAR CYND 231700Z 33012G21KT 15SM FEW034 11/01 A3004 RMK SC2 SLP176
12:00 pm
V
50 °F 15 mi - 340° 340° 15 - 24 kt METAR CYND 231600Z 34015G24KT 300V010 15SM SCT035 10/01 A3006 RMK SC4 SLP181
11:00 am
V
48 °F 15 mi - 340° 340° 12 - 20 kt METAR CYND 231500Z 34012G20KT 15SM SCT030 09/01 A3006 RMK SC4 SLP181
10:00 am
V
45 °F 15 mi 3.500 ft 340° 340° 15 - 22 kt METAR CYND 231400Z 34015G22KT 300V360 15SM BKN035 07/01 A3006 RMK SC6 SLP183
9:00 am
V
43 °F 15 mi 3.200 ft 340° 340° 11 - 18 kt METAR CYND 231300Z 34011G18KT 280V010 15SM BKN032 06/00 A3006 RMK SC6 SLP181
8:00 am
V
43 °F 15 mi - 310° 310° 8 kt METAR CYND 231200Z 31008KT 15SM SCT031 SCT036 06/01 A3003 RMK SC3SC1 SLP173
7:00 am
V
41 °F 15 mi 3.100 ft 270° 270° 6 kt METAR CYND 231100Z 27006KT 250V310 15SM BKN031 05/01 A3002 RMK SC5 SLP168
Données plus anciennes

Nous et des tiers suivons ton comportement sur Internet sur notre site Web à l'aide de cookies. Si tu continues, nous supposons que tu acceptes notre politique en matière de cookies. Apprendre plus